createdAt,value
2018-07-20T00:01:26.512Z,2.93
2018-07-20T00:04:11.454Z,2.90
2018-07-20T00:06:40.124Z,3.33
2018-07-20T00:14:51.822Z,3.10
2018-07-20T00:17:25.156Z,3.80
2018-07-20T00:19:53.943Z,3.10
2018-07-20T00:22:22.696Z,3.33
2018-07-20T00:24:51.419Z,3.67
2018-07-20T00:27:20.095Z,2.77
2018-07-20T00:29:48.786Z,3.47
2018-07-20T00:32:17.428Z,3.00
2018-07-20T00:34:46.176Z,3.00
2018-07-20T00:37:14.919Z,3.13
2018-07-20T00:39:44.181Z,3.13
2018-07-20T00:42:13.084Z,3.50
2018-07-20T00:44:41.784Z,3.10
2018-07-20T00:47:10.505Z,3.53
2018-07-20T00:49:39.187Z,3.70
2018-07-20T00:52:11.848Z,3.70
2018-07-20T00:54:41.454Z,3.23
2018-07-20T00:57:10.109Z,3.30
2018-07-20T00:59:39.984Z,3.00
2018-07-20T01:02:09.215Z,3.07
2018-07-20T01:04:38.088Z,3.40
2018-07-20T01:07:07.156Z,3.50
2018-07-20T01:09:36.009Z,3.57
2018-07-20T01:12:04.699Z,3.43
2018-07-20T01:14:33.496Z,3.73
2018-07-20T01:17:02.224Z,3.30
2018-07-20T01:19:30.893Z,3.67
2018-07-20T01:21:59.612Z,3.40
2018-07-20T01:24:28.451Z,3.33
2018-07-20T01:26:57.237Z,3.30
2018-07-20T01:29:25.886Z,3.80
2018-07-20T01:31:54.621Z,3.90
2018-07-20T01:34:23.268Z,3.67
2018-07-20T01:36:52.116Z,3.33
2018-07-20T01:39:20.796Z,4.07
2018-07-20T01:41:49.532Z,3.47
2018-07-20T01:44:18.232Z,3.37
2018-07-20T01:46:46.885Z,3.90
2018-07-20T01:49:15.532Z,3.80
2018-07-20T01:51:44.207Z,3.67
2018-07-20T01:54:12.992Z,3.63
2018-07-20T01:56:41.660Z,3.40
2018-07-20T01:59:10.397Z,3.90
2018-07-20T02:01:39.076Z,4.00
2018-07-20T02:04:07.951Z,4.07
2018-07-20T02:06:36.944Z,4.03
2018-07-20T02:09:08.854Z,3.73
2018-07-20T02:11:37.524Z,3.90
2018-07-20T02:14:06.468Z,4.13
2018-07-20T02:16:35.234Z,3.87
2018-07-20T02:19:05.212Z,3.53
2018-07-20T02:21:33.946Z,4.10
2018-07-20T02:24:02.638Z,3.60
2018-07-20T02:26:31.300Z,4.27
2018-07-20T02:28:59.984Z,3.73
2018-07-20T02:31:28.685Z,4.03
2018-07-20T02:33:58.693Z,3.60
2018-07-20T02:36:27.374Z,3.87
2018-07-20T02:38:56.064Z,3.80
2018-07-20T02:41:24.738Z,3.90
2018-07-20T02:43:53.399Z,3.60
2018-07-20T02:46:22.040Z,3.47
2018-07-20T02:48:50.715Z,3.97
2018-07-20T02:51:19.427Z,3.73
2018-07-20T02:53:48.092Z,4.00
2018-07-20T02:56:17.985Z,3.97
2018-07-20T02:58:46.664Z,3.70
2018-07-20T03:01:15.329Z,4.20
2018-07-20T03:03:43.997Z,3.67
2018-07-20T03:06:12.731Z,4.17
2018-07-20T03:08:41.364Z,4.20
2018-07-20T03:11:10.059Z,4.07
2018-07-20T03:13:38.705Z,4.13
2018-07-20T03:16:07.402Z,3.77
2018-07-20T03:18:41.812Z,3.63
2018-07-20T03:21:10.877Z,3.83
2018-07-20T03:23:39.536Z,4.47
2018-07-20T03:26:08.384Z,3.60
2018-07-20T03:28:36.774Z,2.93
2018-07-20T03:31:05.483Z,4.03
2018-07-20T03:33:34.182Z,4.37
2018-07-20T03:36:02.877Z,3.87
2018-07-20T03:38:31.512Z,3.63
2018-07-20T03:41:00.200Z,3.73
2018-07-20T03:43:28.871Z,3.40
2018-07-20T03:45:57.571Z,3.67
2018-07-20T03:48:25.919Z,3.90
2018-07-20T03:50:54.556Z,3.63
2018-07-20T03:53:23.247Z,4.53
2018-07-20T03:55:51.945Z,3.57
2018-07-20T03:58:20.631Z,3.40
2018-07-20T04:00:49.396Z,4.03
2018-07-20T04:03:18.079Z,4.13
2018-07-20T04:05:46.821Z,3.80
2018-07-20T04:08:22.385Z,4.07
2018-07-20T04:10:52.219Z,4.07
2018-07-20T04:13:20.957Z,3.93
2018-07-20T04:15:49.618Z,3.83
2018-07-20T04:18:18.351Z,3.93
2018-07-20T04:20:47.021Z,3.77
2018-07-20T04:23:15.708Z,3.93
2018-07-20T04:25:44.409Z,3.73
2018-07-20T04:28:13.130Z,3.77
2018-07-20T04:30:41.844Z,4.20
2018-07-20T04:33:10.570Z,4.20
2018-07-20T04:35:39.260Z,3.97
2018-07-20T04:38:07.928Z,3.53
2018-07-20T04:40:36.664Z,3.70
2018-07-20T04:43:05.345Z,3.43
2018-07-20T04:45:33.992Z,3.63
2018-07-20T04:48:03.394Z,3.87
2018-07-20T04:50:32.037Z,3.80
2018-07-20T04:53:00.747Z,3.30
2018-07-20T04:55:29.390Z,3.90
2018-07-20T04:57:58.052Z,3.63
2018-07-20T05:00:28.252Z,3.70
2018-07-20T05:02:56.928Z,4.47
2018-07-20T05:05:25.557Z,3.80
2018-07-20T05:07:53.832Z,3.57
2018-07-20T05:10:22.476Z,4.03
2018-07-20T05:12:51.113Z,3.93
2018-07-20T05:15:19.724Z,3.80
2018-07-20T05:17:48.395Z,3.67
2018-07-20T05:20:17.036Z,4.07
2018-07-20T05:22:45.661Z,4.10
2018-07-20T05:25:17.336Z,3.60
2018-07-20T05:27:45.948Z,3.70
2018-07-20T05:30:14.579Z,3.63
2018-07-20T05:32:43.271Z,3.70
2018-07-20T05:35:11.908Z,4.10
2018-07-20T05:37:40.578Z,3.67
2018-07-20T05:40:09.264Z,3.63
2018-07-20T05:42:37.880Z,4.10
2018-07-20T05:45:06.612Z,3.80
2018-07-20T05:47:35.260Z,3.70
2018-07-20T05:50:05.120Z,4.47
2018-07-20T05:52:33.828Z,4.00
2018-07-20T05:55:02.441Z,4.13
2018-07-20T05:57:31.107Z,3.90
2018-07-20T05:59:59.740Z,4.13
2018-07-20T06:02:28.408Z,4.43
2018-07-20T06:04:57.044Z,3.83
2018-07-20T06:07:25.707Z,4.10
2018-07-20T06:09:54.319Z,3.87
2018-07-20T06:12:23.152Z,4.33
2018-07-20T06:14:51.785Z,4.13
2018-07-20T06:17:20.403Z,4.47
2018-07-20T06:19:49.054Z,3.97
2018-07-20T06:22:17.693Z,4.37
2018-07-20T06:24:46.355Z,5.00
2018-07-20T06:27:14.666Z,4.33
2018-07-20T06:29:43.306Z,4.30
2018-07-20T06:32:12.019Z,4.60
2018-07-20T06:34:40.755Z,4.17
2018-07-20T06:37:09.423Z,4.60
2018-07-20T06:39:38.121Z,4.60
2018-07-20T06:42:06.795Z,4.67
2018-07-20T06:44:35.434Z,4.40
2018-07-20T06:47:04.683Z,4.50
2018-07-20T06:49:33.328Z,4.13
2018-07-20T06:52:02.020Z,5.23
2018-07-20T06:54:30.620Z,4.67
2018-07-20T06:56:59.219Z,4.13
2018-07-20T06:59:27.868Z,4.13
2018-07-20T07:01:56.488Z,4.63
2018-07-20T07:04:25.088Z,3.97
2018-07-20T07:06:53.703Z,4.60
2018-07-20T07:09:22.032Z,3.90
2018-07-20T07:11:50.632Z,4.87
2018-07-20T07:14:19.258Z,3.60
2018-07-20T07:16:47.844Z,4.30
2018-07-20T07:19:29.752Z,4.33
2018-07-20T07:21:58.573Z,4.40
2018-07-20T07:24:27.211Z,4.67
2018-07-20T07:26:55.859Z,4.93
2018-07-20T07:29:24.494Z,3.77
2018-07-20T07:31:53.127Z,3.93
2018-07-20T07:34:21.784Z,3.70
2018-07-20T07:36:50.420Z,4.20
2018-07-20T07:39:19.057Z,3.50
2018-07-20T07:41:47.821Z,3.60
2018-07-20T07:44:16.474Z,3.53
2018-07-20T07:46:45.167Z,4.20
2018-07-20T07:49:13.852Z,3.93
2018-07-20T07:51:42.536Z,3.67
2018-07-20T07:54:17.711Z,4.20
2018-07-20T07:56:46.687Z,3.80
2018-07-20T07:59:15.415Z,4.30
2018-07-20T08:01:44.128Z,3.93
2018-07-20T08:04:12.756Z,4.50
2018-07-20T08:06:41.912Z,4.10
2018-07-20T08:09:12.494Z,3.73
2018-07-20T08:11:41.491Z,4.10
2018-07-20T08:14:11.692Z,4.13
2018-07-20T08:16:40.384Z,4.10
2018-07-20T08:19:09.036Z,4.60
2018-07-20T08:21:37.860Z,4.00
2018-07-20T08:24:06.859Z,4.30
2018-07-20T08:26:35.552Z,4.47
2018-07-20T08:29:04.214Z,4.47
2018-07-20T08:31:32.868Z,4.57
2018-07-20T08:34:01.562Z,4.63
2018-07-20T08:36:30.253Z,4.27
2018-07-20T08:38:58.961Z,4.03
2018-07-20T08:41:27.596Z,3.47
2018-07-20T08:43:56.272Z,3.20
2018-07-20T08:46:24.906Z,3.70
2018-07-20T08:48:53.577Z,3.70
2018-07-20T08:51:22.283Z,3.30
2018-07-20T08:53:50.944Z,3.80
2018-07-20T08:56:19.572Z,3.30
2018-07-20T08:58:48.210Z,3.73
2018-07-20T09:01:16.892Z,3.57
2018-07-20T09:03:45.155Z,3.27
2018-07-20T09:06:13.783Z,3.20
2018-07-20T09:08:42.403Z,3.27
2018-07-20T09:11:11.068Z,3.10
2018-07-20T09:13:39.743Z,3.17
2018-07-20T09:16:08.427Z,3.23
2018-07-20T09:18:37.064Z,3.20
2018-07-20T09:21:05.835Z,3.50
2018-07-20T09:23:34.482Z,3.47
2018-07-20T09:26:03.173Z,3.27
2018-07-20T09:28:31.857Z,3.17
2018-07-20T09:31:00.512Z,3.20
2018-07-20T09:33:29.159Z,3.37
2018-07-20T09:35:57.812Z,3.10
2018-07-20T09:38:26.475Z,3.17
2018-07-20T09:40:55.108Z,3.40
2018-07-20T09:43:23.873Z,3.40
2018-07-20T09:45:52.489Z,3.60
2018-07-20T09:48:21.123Z,3.40
2018-07-20T09:50:49.773Z,3.43
2018-07-20T09:53:18.412Z,3.40
2018-07-20T09:55:47.055Z,3.40
2018-07-20T09:58:15.685Z,3.53
2018-07-20T10:00:49.703Z,3.87
2018-07-20T10:03:19.580Z,3.47
2018-07-20T10:05:48.593Z,3.70
2018-07-20T10:08:18.402Z,4.03
2018-07-20T10:10:50.199Z,3.97
2018-07-20T10:13:19.140Z,4.30
2018-07-20T10:15:48.759Z,4.03
2018-07-20T10:18:17.414Z,3.37
2018-07-20T10:20:46.077Z,3.93
2018-07-20T10:23:14.716Z,3.60
2018-07-20T10:25:43.481Z,4.00
2018-07-20T10:28:12.160Z,3.70
2018-07-20T10:30:40.824Z,3.60
2018-07-20T10:33:09.456Z,4.17
2018-07-20T10:35:38.174Z,2.93
2018-07-20T10:38:06.835Z,3.07
2018-07-20T10:40:35.457Z,3.80
2018-07-20T10:43:04.146Z,3.47
2018-07-20T10:45:32.811Z,3.67
2018-07-20T10:48:01.426Z,3.62
2018-07-20T10:50:30.037Z,4.43
2018-07-20T10:52:58.675Z,3.83
2018-07-20T10:55:27.384Z,3.83
2018-07-20T10:57:56.077Z,3.37
2018-07-20T11:00:24.771Z,3.52
2018-07-20T11:02:54.788Z,3.87
2018-07-20T11:05:23.115Z,3.40
2018-07-20T11:07:53.480Z,3.60
2018-07-20T11:10:22.229Z,3.20
2018-07-20T11:12:50.967Z,3.12
2018-07-20T11:15:19.633Z,3.08
2018-07-20T11:17:48.407Z,2.85
2018-07-20T11:20:17.048Z,3.75
2018-07-20T11:22:45.707Z,3.67
2018-07-20T11:25:14.394Z,4.05
2018-07-20T11:27:43.028Z,3.75
2018-07-20T11:30:12.325Z,3.47
2018-07-20T11:32:41.697Z,4.05
2018-07-20T11:35:10.344Z,4.28
2018-07-20T11:37:38.975Z,4.12
2018-07-20T11:40:07.714Z,4.35
2018-07-20T11:42:36.453Z,3.98
2018-07-20T11:45:05.617Z,3.92
2018-07-20T11:47:37.341Z,4.42
2018-07-20T11:50:06.038Z,4.22
2018-07-20T11:52:35.715Z,4.25
2018-07-20T11:55:04.493Z,4.40
2018-07-20T11:57:33.173Z,5.20
2018-07-20T12:00:02.202Z,4.95
2018-07-20T12:02:30.904Z,5.37
2018-07-20T12:04:59.970Z,5.25
2018-07-20T12:07:28.642Z,5.60
2018-07-20T12:10:02.059Z,5.25
2018-07-20T12:12:31.203Z,5.15
2018-07-20T12:15:02.712Z,5.55
2018-07-20T12:17:37.762Z,5.37
2018-07-20T12:20:07.524Z,5.60
2018-07-20T12:22:42.065Z,5.70
2018-07-20T12:25:10.738Z,4.85
2018-07-20T12:27:39.575Z,4.72
2018-07-20T12:30:08.412Z,5.05
2018-07-20T12:32:37.680Z,5.20
2018-07-20T12:35:07.851Z,5.62
2018-07-20T12:37:37.576Z,5.37
2018-07-20T12:40:07.799Z,6.25
2018-07-20T12:42:37.084Z,5.80
2018-07-20T12:45:08.062Z,5.70
2018-07-20T12:47:44.399Z,5.80
2018-07-20T12:50:13.124Z,5.37
2018-07-20T12:52:42.852Z,5.20
2018-07-20T12:55:13.959Z,4.97
2018-07-20T12:57:42.656Z,4.85
2018-07-20T13:00:15.074Z,5.00
2018-07-20T13:02:46.311Z,5.40
2018-07-20T13:05:14.944Z,5.28
2018-07-20T13:07:43.620Z,5.75
2018-07-20T13:10:12.428Z,6.10
2018-07-20T13:12:42.059Z,6.30
2018-07-20T13:15:10.717Z,5.87
2018-07-20T13:17:39.464Z,7.17
2018-07-20T13:20:09.828Z,7.15
2018-07-20T13:22:39.667Z,7.40
2018-07-20T13:25:08.411Z,7.17
2018-07-20T13:27:38.362Z,6.78
2018-07-20T13:30:08.643Z,7.45
2018-07-20T13:32:37.489Z,7.75
2018-07-20T13:35:10.292Z,7.90
2018-07-20T13:37:40.184Z,7.70
2018-07-20T13:40:08.944Z,8.40
2018-07-20T13:42:37.776Z,7.90
2018-07-20T13:45:07.500Z,8.58
2018-07-20T13:47:41.848Z,8.60
2018-07-20T13:50:11.087Z,8.13
2018-07-20T13:52:39.883Z,8.33
2018-07-20T13:55:08.597Z,8.73
2018-07-20T13:57:38.898Z,8.38
2018-07-20T14:00:11.720Z,9.10
2018-07-20T14:02:44.925Z,8.75
2018-07-20T14:05:17.065Z,8.93
2018-07-20T14:07:49.040Z,8.55
2018-07-20T14:10:17.779Z,8.80
2018-07-20T14:12:46.589Z,7.95
2018-07-20T14:15:17.192Z,8.98
2018-07-20T14:17:50.627Z,8.05
2018-07-20T14:20:19.693Z,7.30
2018-07-20T14:22:50.551Z,7.95
2018-07-20T14:25:20.731Z,7.37
2018-07-20T14:27:49.400Z,7.33
2018-07-20T14:30:20.097Z,7.72
2018-07-20T14:32:48.761Z,8.50
2018-07-20T14:35:17.476Z,7.45
2018-07-20T14:37:46.184Z,7.20
2018-07-20T14:40:15.471Z,7.85
2018-07-20T14:42:44.469Z,8.23
2018-07-20T14:45:13.148Z,7.42
2018-07-20T14:47:41.788Z,7.83
2018-07-20T14:50:10.452Z,8.78
2018-07-20T14:52:39.212Z,8.77
2018-07-20T14:55:10.531Z,8.13
2018-07-20T14:57:39.195Z,9.13
2018-07-20T15:00:09.558Z,9.83
2018-07-20T15:02:41.131Z,9.03
2018-07-20T15:05:10.356Z,9.20
2018-07-20T15:07:39.255Z,8.77
2018-07-20T15:10:11.419Z,8.50
2018-07-20T15:12:41.601Z,8.83
2018-07-20T15:15:16.655Z,9.13
2018-07-20T15:17:50.025Z,9.53
2018-07-20T15:20:19.955Z,9.80
2018-07-20T15:22:48.627Z,9.20
2018-07-20T15:25:17.298Z,8.93
2018-07-20T15:27:46.008Z,8.60
2018-07-20T15:30:14.661Z,9.00
2018-07-20T15:32:43.379Z,9.37
2018-07-20T15:35:12.044Z,9.00
2018-07-20T15:37:41.706Z,8.27
2018-07-20T15:40:11.689Z,8.00
2018-07-20T15:42:41.432Z,8.87
2018-07-20T15:45:10.617Z,8.17
2018-07-20T15:47:39.268Z,8.53
2018-07-20T15:50:07.972Z,8.33
2018-07-20T15:55:11.395Z,7.67
2018-07-20T15:57:40.561Z,7.47
2018-07-20T16:00:09.288Z,6.83
2018-07-20T16:02:38.602Z,7.60
2018-07-20T16:05:07.601Z,7.40
2018-07-20T16:07:36.325Z,7.63
2018-07-20T16:10:07.951Z,7.17
2018-07-20T16:12:36.679Z,6.80
2018-07-20T16:15:06.412Z,7.23
2018-07-20T16:17:35.931Z,6.20
2018-07-20T16:20:11.960Z,6.57
2018-07-20T16:22:40.929Z,6.07
2018-07-20T16:25:10.484Z,5.60
2018-07-20T16:27:40.107Z,5.70
2018-07-20T16:30:11.956Z,6.07
2018-07-20T16:32:40.951Z,6.13
2018-07-20T16:35:09.684Z,6.37
2018-07-20T16:37:38.403Z,5.43
2018-07-20T16:40:10.789Z,5.07
2018-07-20T16:42:39.262Z,4.30
2018-07-20T16:45:08.014Z,4.47
2018-07-20T16:47:37.501Z,4.10
2018-07-20T16:50:08.139Z,4.60
2018-07-20T16:52:36.973Z,3.53
2018-07-20T16:55:05.681Z,3.87
2018-07-20T16:57:34.376Z,4.00
2018-07-20T17:00:03.186Z,3.70
2018-07-20T17:02:50.365Z,3.60
2018-07-20T17:05:19.012Z,4.30
2018-07-20T17:07:49.655Z,3.77
2018-07-20T17:10:24.795Z,3.80
2018-07-20T17:12:53.760Z,3.23
2018-07-20T17:15:23.996Z,4.53
2018-07-20T17:17:52.648Z,3.90
2018-07-20T17:20:22.296Z,3.87
2018-07-20T17:22:50.927Z,4.37
2018-07-20T17:25:21.390Z,4.07
2018-07-20T17:27:50.138Z,4.20
2018-07-20T17:30:19.829Z,4.57
2018-07-20T17:32:48.500Z,5.03
2018-07-20T17:35:17.676Z,6.17
2018-07-20T17:37:48.146Z,5.20
2018-07-20T17:40:16.818Z,6.33
2018-07-20T17:42:45.454Z,5.57
2018-07-20T17:45:14.175Z,6.82
2018-07-20T17:47:42.815Z,7.30
2018-07-20T17:50:11.607Z,6.37
2018-07-20T17:52:40.256Z,7.37
2018-07-20T17:55:08.934Z,6.83
2018-07-20T17:57:37.538Z,6.83
2018-07-20T18:00:06.334Z,6.70
2018-07-20T18:02:34.984Z,5.40
2018-07-20T18:05:03.766Z,4.30
2018-07-20T18:07:35.604Z,4.47
2018-07-20T18:10:04.744Z,5.30
2018-07-20T18:12:33.359Z,4.40
2018-07-20T18:15:02.208Z,4.50
2018-07-20T18:20:19.457Z,4.10
2018-07-20T18:22:54.666Z,3.73
2018-07-20T18:28:01.112Z,3.90
2018-07-20T18:30:29.837Z,3.57
2018-07-20T18:32:58.456Z,3.73
2018-07-20T18:35:27.096Z,4.30
2018-07-20T18:38:00.720Z,4.30
2018-07-20T18:40:30.327Z,4.27
2018-07-20T18:42:58.599Z,4.03
2018-07-20T18:45:27.286Z,3.80
2018-07-20T18:47:56.053Z,4.40
2018-07-20T18:50:28.159Z,3.97
2018-07-20T18:53:01.440Z,4.47
2018-07-20T18:55:30.040Z,4.10
2018-07-20T18:58:10.049Z,4.87
2018-07-20T19:00:38.730Z,6.17
2018-07-20T19:03:07.430Z,4.90
2018-07-20T19:05:36.065Z,4.43
2018-07-20T19:08:04.808Z,5.80
2018-07-20T19:10:33.480Z,5.23
2018-07-20T19:13:02.132Z,5.67
2018-07-20T19:15:30.748Z,5.30
2018-07-20T19:17:59.376Z,5.70
2018-07-20T19:20:28.037Z,5.80
2018-07-20T19:22:56.660Z,7.80
2018-07-20T19:25:25.293Z,7.63
2018-07-20T19:27:54.285Z,5.87
2018-07-20T19:30:22.995Z,6.27
2018-07-20T19:32:51.722Z,7.47
2018-07-20T19:35:20.353Z,6.10
2018-07-20T19:37:49.038Z,7.07
2018-07-20T19:40:17.688Z,6.93
2018-07-20T19:42:47.243Z,6.80
2018-07-20T19:45:15.889Z,7.33
2018-07-20T19:47:48.627Z,7.37
2018-07-20T19:50:22.756Z,7.97
2018-07-20T19:52:51.677Z,7.43
2018-07-20T19:55:21.146Z,6.80
2018-07-20T19:58:00.613Z,6.73
2018-07-20T20:00:44.616Z,6.90
2018-07-20T20:03:52.680Z,8.08
2018-07-20T20:06:25.756Z,8.50
2018-07-20T20:08:56.777Z,8.67
2018-07-20T20:11:25.436Z,7.83
2018-07-20T20:13:54.042Z,7.90
2018-07-20T20:16:23.332Z,6.77
2018-07-20T20:18:51.992Z,5.90
2018-07-20T20:21:20.255Z,5.80
2018-07-20T20:23:49.484Z,5.30
2018-07-20T20:26:18.116Z,5.20
2018-07-20T20:28:46.816Z,4.80
2018-07-20T20:31:15.438Z,4.87
2018-07-20T20:33:44.076Z,4.73
2018-07-20T20:36:12.689Z,4.93
2018-07-20T20:38:41.374Z,4.90
2018-07-20T20:41:10.052Z,4.70
2018-07-20T20:43:39.390Z,5.17
2018-07-20T20:46:08.287Z,4.57
2018-07-20T20:48:36.935Z,4.23
2018-07-20T20:51:06.587Z,5.23
2018-07-20T20:53:36.255Z,5.03
2018-07-20T20:56:04.955Z,5.10
2018-07-20T20:58:33.575Z,5.17
2018-07-20T21:01:02.308Z,5.47
2018-07-20T21:03:30.933Z,5.40
2018-07-20T21:06:00.000Z,5.27
2018-07-20T21:08:28.620Z,5.73
2018-07-20T21:10:57.234Z,5.60
2018-07-20T21:13:28.063Z,5.33
2018-07-20T21:15:57.050Z,5.23
2018-07-20T21:18:26.432Z,6.07
2018-07-20T21:20:55.037Z,5.43
2018-07-20T21:23:23.624Z,5.20
2018-07-20T21:25:52.391Z,6.45
2018-07-20T21:28:21.000Z,6.03
2018-07-20T21:30:49.604Z,5.77
2018-07-20T21:33:18.312Z,6.47
2018-07-20T21:35:48.796Z,5.33
2018-07-20T21:38:18.583Z,5.83
2018-07-20T21:40:47.204Z,6.83
2018-07-20T21:43:17.605Z,6.70
2018-07-20T21:45:46.311Z,6.47
2018-07-20T21:48:15.645Z,7.03
2018-07-20T21:50:48.152Z,6.90
2018-07-20T21:53:17.547Z,6.40
2018-07-20T21:55:47.308Z,6.83
2018-07-20T21:58:16.128Z,6.70
2018-07-20T22:00:44.840Z,7.20
2018-07-20T22:03:13.484Z,6.60
2018-07-20T22:05:42.088Z,7.00
2018-07-20T22:08:10.724Z,6.10
2018-07-20T22:10:39.328Z,6.30
2018-07-20T22:13:07.935Z,6.43
2018-07-20T22:15:36.565Z,6.37
2018-07-20T22:18:05.659Z,6.90
2018-07-20T22:20:34.272Z,6.10
2018-07-20T22:23:02.891Z,5.63
2018-07-20T22:25:31.492Z,5.57
2018-07-20T22:28:00.115Z,6.30
2018-07-20T22:30:28.805Z,6.35
2018-07-20T22:32:57.516Z,5.70
2018-07-20T22:35:28.188Z,6.30
2018-07-20T22:37:56.807Z,5.50
2018-07-20T22:40:25.881Z,6.07
2018-07-20T22:42:55.179Z,6.27
2018-07-20T22:45:23.877Z,6.50
2018-07-20T22:47:52.586Z,6.00
2018-07-20T22:50:21.244Z,5.93
2018-07-20T22:52:50.272Z,5.60
2018-07-20T22:55:18.956Z,5.67
2018-07-20T22:57:47.556Z,5.70
2018-07-20T23:00:16.533Z,6.07
2018-07-20T23:02:45.771Z,5.30
2018-07-20T23:05:16.581Z,6.00
2018-07-20T23:07:45.868Z,6.00
2018-07-20T23:10:14.487Z,6.43
2018-07-20T23:12:43.148Z,6.13
2018-07-20T23:15:12.001Z,6.27
2018-07-20T23:17:40.670Z,5.47
2018-07-20T23:20:09.335Z,6.03
2018-07-20T23:22:37.967Z,6.60
2018-07-20T23:25:06.615Z,6.70
2018-07-20T23:27:35.515Z,6.00
2018-07-20T23:30:08.016Z,6.47
2018-07-20T23:32:38.124Z,6.33
2018-07-20T23:35:08.045Z,5.50
2018-07-20T23:37:37.850Z,5.80
2018-07-20T23:40:06.347Z,5.93
2018-07-20T23:42:35.142Z,6.30
2018-07-20T23:45:04.096Z,6.10
2018-07-20T23:47:32.804Z,6.03
2018-07-20T23:50:01.520Z,6.30
2018-07-20T23:52:30.211Z,5.67
2018-07-20T23:54:58.971Z,6.20
2018-07-20T23:57:27.287Z,6.20
2018-07-20T23:59:55.942Z,5.83
